createdAt,value
2023-04-25T00:02:20.897Z,1.90
2023-04-25T00:04:50.500Z,1.40
2023-04-25T00:07:17.794Z,1.83
2023-04-25T00:09:45.882Z,1.43
2023-04-25T00:12:12.990Z,1.47
2023-04-25T00:14:39.899Z,1.47
2023-04-25T00:17:06.896Z,1.63
2023-04-25T00:19:36.053Z,1.60
2023-04-25T00:22:02.965Z,1.60
2023-04-25T00:24:29.963Z,1.20
2023-04-25T00:26:57.003Z,1.53
2023-04-25T00:29:23.914Z,1.50
2023-04-25T00:31:50.987Z,1.23
2023-04-25T00:34:17.969Z,1.47
2023-04-25T00:36:45.040Z,1.30
2023-04-25T00:39:12.823Z,1.63
2023-04-25T00:41:40.777Z,1.50
2023-04-25T00:44:12.219Z,1.20
2023-04-25T00:46:40.969Z,1.80
2023-04-25T00:49:08.326Z,1.40
2023-04-25T00:51:36.165Z,1.23
2023-04-25T00:54:03.595Z,1.50
2023-04-25T00:56:31.227Z,1.43
2023-04-25T00:58:58.598Z,1.60
2023-04-25T01:01:25.799Z,1.07
2023-04-25T01:03:55.452Z,1.00
2023-04-25T01:06:23.406Z,1.43
2023-04-25T01:08:50.494Z,1.50
2023-04-25T01:11:17.465Z,1.90
2023-04-25T01:13:44.502Z,1.30
2023-04-25T01:16:11.642Z,1.53
2023-04-25T01:18:41.637Z,1.33
2023-04-25T01:21:11.094Z,1.20
2023-04-25T01:23:43.086Z,1.23
2023-04-25T01:26:11.772Z,1.67
2023-04-25T01:28:42.339Z,1.47
2023-04-25T01:31:11.497Z,1.50
2023-04-25T01:33:39.202Z,1.57
2023-04-25T01:36:07.091Z,1.60
2023-04-25T01:38:36.616Z,1.50
2023-04-25T01:41:03.900Z,1.47
2023-04-25T01:43:30.852Z,2.10
2023-04-25T01:45:58.145Z,2.20
2023-04-25T01:48:25.572Z,2.10
2023-04-25T01:50:52.574Z,1.30
2023-04-25T01:53:19.740Z,2.03
2023-04-25T01:55:47.410Z,2.10
2023-04-25T01:58:16.801Z,2.10
2023-04-25T02:01:10.121Z,1.83
2023-04-25T02:03:44.643Z,1.90
2023-04-25T02:06:20.792Z,2.10
2023-04-25T02:08:49.330Z,1.87
2023-04-25T02:11:17.005Z,2.17
2023-04-25T02:14:13.266Z,1.90
2023-04-25T02:16:55.947Z,1.70
2023-04-25T02:19:23.826Z,1.77
2023-04-25T02:21:50.691Z,1.67
2023-04-25T02:24:17.644Z,1.83
2023-04-25T02:26:45.150Z,1.27
2023-04-25T02:29:13.884Z,1.33
2023-04-25T02:31:43.404Z,1.27
2023-04-25T02:34:10.628Z,1.77
2023-04-25T02:36:39.353Z,1.10
2023-04-25T02:39:06.601Z,1.50
2023-04-25T02:41:33.548Z,1.50
2023-04-25T02:44:00.495Z,1.70
2023-04-25T02:46:38.366Z,1.53
2023-04-25T02:49:07.929Z,1.23
2023-04-25T02:51:35.659Z,1.00
2023-04-25T02:54:02.982Z,1.10
2023-04-25T02:56:31.506Z,1.03
2023-04-25T02:58:58.500Z,1.20
2023-04-25T03:01:25.841Z,1.03
2023-04-25T03:03:53.238Z,1.27
2023-04-25T03:06:20.893Z,1.10
2023-04-25T03:08:47.912Z,1.07
2023-04-25T03:11:15.720Z,1.17
2023-04-25T03:13:43.358Z,1.27
2023-04-25T03:16:11.298Z,0.73
2023-04-25T03:18:38.365Z,1.00
2023-04-25T03:21:05.349Z,1.03
2023-04-25T03:23:32.314Z,0.93
2023-04-25T03:25:59.356Z,1.20
2023-04-25T03:28:26.483Z,0.90
2023-04-25T03:30:55.117Z,1.00
2023-04-25T03:33:22.448Z,0.80
2023-04-25T03:35:50.907Z,2.23
2023-04-25T03:38:18.484Z,1.10
2023-04-25T03:40:46.203Z,1.27
2023-04-25T03:43:24.512Z,0.90
2023-04-25T03:45:57.746Z,1.00
2023-04-25T03:48:27.131Z,1.17
2023-04-25T03:50:55.778Z,1.40
2023-04-25T03:53:23.192Z,1.10
2023-04-25T03:56:10.675Z,1.03
2023-04-25T03:58:39.592Z,1.03
2023-04-25T04:01:08.771Z,1.13
2023-04-25T04:03:38.988Z,1.10
2023-04-25T04:06:08.207Z,1.30
2023-04-25T04:08:41.405Z,1.23
2023-04-25T04:11:09.919Z,1.63
2023-04-25T04:13:37.533Z,1.10
2023-04-25T04:16:05.505Z,1.13
2023-04-25T04:18:34.495Z,1.10
2023-04-25T04:21:02.500Z,1.20
2023-04-25T04:23:32.324Z,1.10
2023-04-25T04:26:00.837Z,1.30
2023-04-25T04:28:27.878Z,1.30
2023-04-25T04:31:22.565Z,1.50
2023-04-25T04:33:49.996Z,1.20
2023-04-25T04:36:20.843Z,1.30
2023-04-25T04:38:48.531Z,1.43
2023-04-25T04:41:24.359Z,1.43
2023-04-25T04:44:04.351Z,1.60
2023-04-25T04:46:51.796Z,1.10
2023-04-25T04:49:47.957Z,1.57
2023-04-25T04:52:44.237Z,1.40
2023-04-25T04:55:29.984Z,1.37
2023-04-25T04:58:09.122Z,1.57
2023-04-25T05:00:44.780Z,1.70
2023-04-25T05:03:26.541Z,1.50
2023-04-25T05:06:09.906Z,1.33
2023-04-25T05:08:56.296Z,1.93
2023-04-25T05:11:36.712Z,1.43
2023-04-25T05:14:13.614Z,1.50
2023-04-25T05:16:40.846Z,1.50
2023-04-25T05:19:37.214Z,1.70
2023-04-25T05:22:27.371Z,1.73
2023-04-25T05:25:20.428Z,2.30
2023-04-25T05:28:11.675Z,2.00
2023-04-25T05:30:57.612Z,2.37
2023-04-25T05:33:39.095Z,1.90
2023-04-25T05:36:07.427Z,2.03
2023-04-25T05:38:35.274Z,2.13
2023-04-25T05:41:14.646Z,2.03
2023-04-25T05:43:48.345Z,1.80
2023-04-25T05:46:34.275Z,2.47
2023-04-25T05:49:12.587Z,2.30
2023-04-25T05:51:58.402Z,2.13
2023-04-25T05:54:48.016Z,2.20
2023-04-25T05:57:23.456Z,2.37
2023-04-25T05:59:50.460Z,2.50
2023-04-25T06:02:18.843Z,2.47
2023-04-25T06:04:46.346Z,2.83
2023-04-25T06:07:14.038Z,2.60
2023-04-25T06:09:41.942Z,2.70
2023-04-25T06:12:10.348Z,3.17
2023-04-25T06:14:37.730Z,2.57
2023-04-25T06:17:09.481Z,2.60
2023-04-25T06:19:39.526Z,3.03
2023-04-25T06:22:08.264Z,3.13
2023-04-25T06:24:39.325Z,2.60
2023-04-25T06:27:06.795Z,2.43
2023-04-25T06:29:33.706Z,2.80
2023-04-25T06:32:00.730Z,2.83
2023-04-25T06:34:27.756Z,3.17
2023-04-25T06:36:54.804Z,2.90
2023-04-25T06:39:24.334Z,2.97
2023-04-25T06:41:51.537Z,3.17
2023-04-25T06:44:38.358Z,3.30
2023-04-25T06:47:08.739Z,3.43
2023-04-25T06:49:36.176Z,3.70
2023-04-25T06:52:03.938Z,3.97
2023-04-25T06:54:30.987Z,3.87
2023-04-25T06:57:07.570Z,4.60
2023-04-25T06:59:35.374Z,5.10
2023-04-25T07:02:04.572Z,4.80
2023-04-25T07:04:32.190Z,5.53
2023-04-25T07:07:01.964Z,5.57
2023-04-25T07:09:37.257Z,5.37
2023-04-25T07:12:05.930Z,5.57
2023-04-25T07:14:34.105Z,5.63
2023-04-25T07:17:01.765Z,4.97
2023-04-25T07:19:31.354Z,5.03
2023-04-25T07:22:01.612Z,4.80
2023-04-25T07:24:28.741Z,5.67
2023-04-25T07:26:57.420Z,4.77
2023-04-25T07:29:33.782Z,4.33
2023-04-25T07:32:01.477Z,4.80
2023-04-25T07:34:28.466Z,4.53
2023-04-25T07:36:55.589Z,3.83
2023-04-25T07:39:24.481Z,2.00
2023-04-25T07:41:54.487Z,1.60
2023-04-25T07:44:26.906Z,0.60
2023-04-25T07:46:54.518Z,0.70
2023-04-25T07:49:21.791Z,1.17
2023-04-25T07:51:50.046Z,0.90
2023-04-25T07:54:19.567Z,0.90
2023-04-25T07:56:55.102Z,0.80
2023-04-25T07:59:29.830Z,0.50
2023-04-25T08:01:58.842Z,0.40
2023-04-25T08:04:27.098Z,0.70
2023-04-25T08:07:05.732Z,0.60
2023-04-25T08:09:40.552Z,0.73
2023-04-25T08:12:13.696Z,0.70
2023-04-25T08:14:41.195Z,0.60
2023-04-25T08:17:08.299Z,0.57
2023-04-25T08:19:40.883Z,0.63
2023-04-25T08:22:13.793Z,0.70
2023-04-25T08:24:55.067Z,0.70
2023-04-25T08:27:22.868Z,0.73
2023-04-25T08:29:50.106Z,0.50
2023-04-25T08:32:17.756Z,0.60
2023-04-25T08:34:57.909Z,0.43
2023-04-25T08:37:25.550Z,0.87
2023-04-25T08:40:06.229Z,0.40
2023-04-25T08:43:12.302Z,0.40
2023-04-25T08:45:43.692Z,0.30
2023-04-25T08:48:17.788Z,0.30
2023-04-25T08:50:51.707Z,0.63
2023-04-25T08:53:26.334Z,0.30
2023-04-25T08:55:58.796Z,0.50
2023-04-25T08:58:25.975Z,0.40
2023-04-25T09:00:53.944Z,0.40
2023-04-25T09:03:23.977Z,0.50
2023-04-25T09:05:52.392Z,0.67
2023-04-25T09:08:19.436Z,0.30
2023-04-25T09:10:46.712Z,0.90
2023-04-25T09:13:18.265Z,0.40
2023-04-25T09:16:11.276Z,0.60
2023-04-25T09:18:55.993Z,0.50
2023-04-25T09:21:24.045Z,0.70
2023-04-25T09:23:52.867Z,0.80
2023-04-25T09:26:21.715Z,0.50
2023-04-25T09:28:50.155Z,0.40
2023-04-25T09:31:26.144Z,0.40
2023-04-25T09:34:02.067Z,0.60
2023-04-25T09:36:32.882Z,0.47
2023-04-25T09:39:16.289Z,0.50
2023-04-25T09:41:48.593Z,0.30
2023-04-25T09:44:16.277Z,0.40
2023-04-25T09:46:53.456Z,0.37
2023-04-25T09:49:22.490Z,0.27
2023-04-25T09:52:23.257Z,0.20
2023-04-25T09:55:01.523Z,0.20
2023-04-25T09:57:34.439Z,0.30
2023-04-25T10:00:05.884Z,0.23
2023-04-25T10:02:44.036Z,0.40
2023-04-25T10:05:18.027Z,0.20
2023-04-25T10:07:45.584Z,0.20
2023-04-25T10:10:17.462Z,0.30
2023-04-25T10:12:45.671Z,0.33
2023-04-25T10:15:13.321Z,0.40
2023-04-25T10:17:40.983Z,0.30
2023-04-25T10:20:11.819Z,0.50
2023-04-25T10:22:47.068Z,0.37
2023-04-25T10:25:15.423Z,0.60
2023-04-25T10:27:42.749Z,0.40
2023-04-25T10:30:13.600Z,0.60
2023-04-25T10:32:42.392Z,0.50
2023-04-25T10:35:20.521Z,0.40
2023-04-25T10:38:10.574Z,0.40
2023-04-25T10:40:37.863Z,1.03
2023-04-25T10:43:32.365Z,0.53
2023-04-25T10:46:04.374Z,0.60
2023-04-25T10:48:32.831Z,0.30
2023-04-25T10:51:09.817Z,0.30
2023-04-25T10:53:36.941Z,0.40
2023-04-25T10:56:22.494Z,0.50
2023-04-25T10:58:52.119Z,0.30
2023-04-25T11:01:26.488Z,0.40
2023-04-25T11:03:59.473Z,0.60
2023-04-25T11:07:08.734Z,0.30
2023-04-25T11:09:37.105Z,0.40
2023-04-25T11:12:04.212Z,0.33
2023-04-25T11:14:31.306Z,0.50
2023-04-25T11:17:00.671Z,0.43
2023-04-25T11:19:28.848Z,0.53
2023-04-25T11:22:01.060Z,0.50
2023-04-25T11:24:32.200Z,0.37
2023-04-25T11:27:04.010Z,0.50
2023-04-25T11:29:32.591Z,0.40
2023-04-25T11:32:00.037Z,0.40
2023-04-25T11:34:28.333Z,0.50
2023-04-25T11:36:55.320Z,0.60
2023-04-25T11:39:22.446Z,0.70
2023-04-25T11:41:49.426Z,0.60
2023-04-25T11:44:20.617Z,0.33
2023-04-25T11:46:48.277Z,0.67
2023-04-25T11:49:16.021Z,0.53
2023-04-25T11:51:47.487Z,0.60
2023-04-25T11:54:15.066Z,0.50
2023-04-25T11:56:46.564Z,0.50
2023-04-25T11:59:14.471Z,0.50
2023-04-25T12:01:50.584Z,0.30
2023-04-25T12:04:23.124Z,0.43
2023-04-25T12:06:55.468Z,0.73
2023-04-25T12:09:30.086Z,0.70
2023-04-25T12:11:59.448Z,0.60
2023-04-25T12:14:32.351Z,0.50
2023-04-25T12:17:00.947Z,0.60
2023-04-25T12:19:34.333Z,0.53
2023-04-25T12:22:04.183Z,0.70
2023-04-25T12:24:37.091Z,0.50
2023-04-25T12:27:09.361Z,0.70
2023-04-25T12:29:48.495Z,0.60
2023-04-25T12:32:17.240Z,0.50
2023-04-25T12:34:44.569Z,0.60
2023-04-25T12:37:12.455Z,0.70
2023-04-25T12:39:39.664Z,0.60
2023-04-25T12:42:09.641Z,0.70
2023-04-25T12:44:37.372Z,0.43
2023-04-25T12:47:05.157Z,0.50
2023-04-25T12:49:32.809Z,0.63
2023-04-25T12:52:00.012Z,0.40
2023-04-25T12:54:27.255Z,0.53
2023-04-25T12:56:54.236Z,0.50
2023-04-25T12:59:22.257Z,0.70
2023-04-25T13:01:49.367Z,0.50
2023-04-25T13:04:17.258Z,0.57
2023-04-25T13:06:44.546Z,0.60
2023-04-25T13:09:13.643Z,0.50
2023-04-25T13:11:41.834Z,0.60
2023-04-25T13:14:08.871Z,0.60
2023-04-25T13:16:36.276Z,0.53
2023-04-25T13:19:03.317Z,0.60
2023-04-25T13:21:33.543Z,0.67
2023-04-25T13:24:00.730Z,0.67
2023-04-25T13:26:27.780Z,0.70
2023-04-25T13:28:54.831Z,0.33
2023-04-25T13:31:22.256Z,0.30
2023-04-25T13:33:49.409Z,0.43
2023-04-25T13:36:16.518Z,0.50
2023-04-25T13:38:45.243Z,0.37
2023-04-25T13:41:16.701Z,0.50
2023-04-25T13:43:43.712Z,0.30
2023-04-25T13:46:24.742Z,0.57
2023-04-25T13:49:06.150Z,0.37
2023-04-25T13:51:37.216Z,0.63
2023-04-25T13:54:04.272Z,0.57
2023-04-25T13:56:31.279Z,0.60
2023-04-25T13:58:58.276Z,0.93
2023-04-25T14:01:25.297Z,0.70
2023-04-25T14:03:52.464Z,0.80
2023-04-25T14:06:23.899Z,0.60
2023-04-25T14:08:51.755Z,0.50
2023-04-25T14:11:19.438Z,0.80
2023-04-25T14:13:47.243Z,0.50
2023-04-25T14:16:14.334Z,0.67
2023-04-25T14:18:41.464Z,0.50
2023-04-25T14:21:08.987Z,0.30
2023-04-25T14:23:35.968Z,0.50
2023-04-25T14:26:03.487Z,0.50
2023-04-25T14:28:30.502Z,0.37
2023-04-25T14:30:57.411Z,0.50
2023-04-25T14:33:24.687Z,0.40
2023-04-25T14:35:51.555Z,0.80
2023-04-25T14:38:19.505Z,0.30
2023-04-25T14:40:46.647Z,0.70
2023-04-25T14:43:13.620Z,0.40
2023-04-25T14:45:40.538Z,0.93
2023-04-25T14:48:07.892Z,0.40
2023-04-25T14:50:35.299Z,0.50
2023-04-25T14:53:02.700Z,0.50
2023-04-25T14:55:29.842Z,0.50
2023-04-25T14:57:57.652Z,0.40
2023-04-25T15:00:26.228Z,0.47
2023-04-25T15:02:53.669Z,0.40
2023-04-25T15:05:21.152Z,0.30
2023-04-25T15:07:48.929Z,0.30
2023-04-25T15:10:17.130Z,0.40
2023-04-25T15:12:47.397Z,0.47
2023-04-25T15:15:22.803Z,0.40
2023-04-25T15:17:57.186Z,0.30
2023-04-25T15:20:26.044Z,0.40
2023-04-25T15:22:53.082Z,0.30
2023-04-25T15:25:20.150Z,0.27
2023-04-25T15:27:49.448Z,0.33
2023-04-25T15:30:18.059Z,0.53
2023-04-25T15:32:46.652Z,0.30
2023-04-25T15:35:14.441Z,0.30
2023-04-25T15:37:41.935Z,1.17
2023-04-25T15:40:17.021Z,0.33
2023-04-25T15:42:51.517Z,0.30
2023-04-25T15:45:20.698Z,0.43
2023-04-25T15:47:48.152Z,0.50
2023-04-25T15:50:16.241Z,0.40
2023-04-25T15:52:43.961Z,0.30
2023-04-25T15:55:12.944Z,0.20
2023-04-25T15:57:42.017Z,0.50
2023-04-25T16:00:17.166Z,0.73
2023-04-25T16:02:46.133Z,0.80
2023-04-25T16:05:14.634Z,0.50
2023-04-25T16:07:43.129Z,0.70
2023-04-25T16:10:11.510Z,0.97
2023-04-25T16:12:41.733Z,0.80
2023-04-25T16:15:09.188Z,0.80
2023-04-25T16:17:36.343Z,0.50
2023-04-25T16:20:09.938Z,0.60
2023-04-25T16:22:39.400Z,0.60
2023-04-25T16:25:07.319Z,0.80
2023-04-25T16:27:35.028Z,0.80
2023-04-25T16:30:02.599Z,0.50
2023-04-25T16:32:29.555Z,0.60
2023-04-25T16:34:58.674Z,0.73
2023-04-25T16:37:26.976Z,0.97
2023-04-25T16:39:54.284Z,0.87
2023-04-25T16:42:21.286Z,1.13
2023-04-25T16:44:48.198Z,0.50
2023-04-25T16:47:17.924Z,0.70
2023-04-25T16:49:46.563Z,0.67
2023-04-25T16:52:13.580Z,0.70
2023-04-25T16:54:41.064Z,0.50
2023-04-25T16:57:11.003Z,0.50
2023-04-25T16:59:39.104Z,0.60
2023-04-25T17:02:08.321Z,1.00
2023-04-25T17:04:35.418Z,1.27
2023-04-25T17:07:02.637Z,0.77
2023-04-25T17:09:29.654Z,1.93
2023-04-25T17:11:56.578Z,0.60
2023-04-25T17:14:23.656Z,0.47
2023-04-25T17:16:50.826Z,0.63
2023-04-25T17:19:17.868Z,0.43
2023-04-25T17:21:45.271Z,0.50
2023-04-25T17:24:12.842Z,0.30
2023-04-25T17:26:39.773Z,0.57
2023-04-25T17:29:06.798Z,0.67
2023-04-25T17:31:33.799Z,0.40
2023-04-25T17:34:01.346Z,0.50
2023-04-25T17:36:28.221Z,0.80
2023-04-25T17:38:55.173Z,0.77
2023-04-25T17:41:22.228Z,0.77
2023-04-25T17:43:49.706Z,0.90
2023-04-25T17:46:16.739Z,0.53
2023-04-25T17:48:44.183Z,0.60
2023-04-25T17:51:11.157Z,0.80
2023-04-25T17:53:38.099Z,0.60
2023-04-25T17:56:06.941Z,0.57
2023-04-25T17:58:40.489Z,0.80
2023-04-25T18:01:07.364Z,0.97
2023-04-25T18:03:34.422Z,0.90
2023-04-25T18:06:01.504Z,0.70
2023-04-25T18:08:28.485Z,0.80
2023-04-25T18:10:55.453Z,0.67
2023-04-25T18:13:22.373Z,0.60
2023-04-25T18:15:49.347Z,0.60
2023-04-25T18:18:20.257Z,0.53
2023-04-25T18:20:47.505Z,0.60
2023-04-25T18:23:14.415Z,0.60
2023-04-25T18:25:41.848Z,0.63
2023-04-25T18:28:09.120Z,0.90
2023-04-25T18:30:37.882Z,0.50
2023-04-25T18:33:05.116Z,0.50
2023-04-25T18:35:32.830Z,0.60
2023-04-25T18:37:59.716Z,0.83
2023-04-25T18:40:27.024Z,0.60
2023-04-25T18:42:54.006Z,0.70
2023-04-25T18:45:21.070Z,0.50
2023-04-25T18:47:48.084Z,0.60
2023-04-25T18:50:15.834Z,0.50
2023-04-25T18:52:43.148Z,0.60
2023-04-25T18:55:10.453Z,0.53
2023-04-25T18:57:38.586Z,0.50
2023-04-25T19:00:06.994Z,0.70
2023-04-25T19:02:37.351Z,0.90
2023-04-25T19:05:04.715Z,0.63
2023-04-25T19:07:32.383Z,0.60
2023-04-25T19:09:59.362Z,1.47
2023-04-25T19:12:26.385Z,0.70
2023-04-25T19:14:53.412Z,0.53
2023-04-25T19:17:20.334Z,0.90
2023-04-25T19:19:47.371Z,0.80
2023-04-25T19:22:14.364Z,0.70
2023-04-25T19:24:41.450Z,0.77
2023-04-25T19:27:08.613Z,0.80
2023-04-25T19:29:36.210Z,0.73
2023-04-25T19:32:03.514Z,0.77
2023-04-25T19:34:30.582Z,1.03
2023-04-25T19:36:57.524Z,0.70
2023-04-25T19:39:24.450Z,1.07
2023-04-25T19:41:51.423Z,0.80
2023-04-25T19:44:18.434Z,0.90
2023-04-25T19:46:46.721Z,0.80
2023-04-25T19:49:13.724Z,0.93
2023-04-25T19:51:42.122Z,1.10
2023-04-25T19:54:09.698Z,0.93
2023-04-25T19:56:36.937Z,0.80
2023-04-25T19:59:03.928Z,1.27
2023-04-25T20:01:31.090Z,1.13
2023-04-25T20:03:58.146Z,0.80
2023-04-25T20:06:25.483Z,0.87
2023-04-25T20:08:56.159Z,1.00
2023-04-25T20:11:23.617Z,0.97
2023-04-25T20:13:50.867Z,1.10
2023-04-25T20:16:20.286Z,1.13
2023-04-25T20:18:48.704Z,1.10
2023-04-25T20:21:17.122Z,1.00
2023-04-25T20:23:44.204Z,1.07
2023-04-25T20:26:12.888Z,1.20
2023-04-25T20:28:39.949Z,1.00
2023-04-25T20:31:07.153Z,1.00
2023-04-25T20:33:37.707Z,1.23
2023-04-25T20:36:05.149Z,1.13
2023-04-25T20:38:32.581Z,1.27
2023-04-25T20:41:00.482Z,1.63
2023-04-25T20:43:27.414Z,1.30
2023-04-25T20:45:54.881Z,1.10
2023-04-25T20:48:22.442Z,1.00
2023-04-25T20:50:49.548Z,1.00
2023-04-25T20:53:16.806Z,1.23
2023-04-25T20:55:44.255Z,1.30
2023-04-25T20:58:11.290Z,1.20
2023-04-25T21:00:39.038Z,1.37
2023-04-25T21:03:07.688Z,1.67
2023-04-25T21:05:34.824Z,1.50
2023-04-25T21:08:01.767Z,1.27
2023-04-25T21:10:28.863Z,0.93
2023-04-25T21:12:56.675Z,1.40
2023-04-25T21:15:24.700Z,1.40
2023-04-25T21:17:52.415Z,2.50
2023-04-25T21:20:21.517Z,2.00
2023-04-25T21:22:52.756Z,2.30
2023-04-25T21:25:31.119Z,1.90
2023-04-25T21:27:59.294Z,1.90
2023-04-25T21:30:26.796Z,1.77
2023-04-25T21:32:54.011Z,1.87
2023-04-25T21:35:21.909Z,2.50
2023-04-25T21:37:49.610Z,1.80
2023-04-25T21:40:16.647Z,1.30
2023-04-25T21:42:45.909Z,1.70
2023-04-25T21:45:12.924Z,1.90
2023-04-25T21:47:40.041Z,2.27
2023-04-25T21:50:08.104Z,2.03
2023-04-25T21:52:36.337Z,2.60
2023-04-25T21:55:03.446Z,2.80
2023-04-25T21:57:30.386Z,3.17
2023-04-25T21:59:57.428Z,3.20
2023-04-25T22:02:24.831Z,3.70
2023-04-25T22:04:52.327Z,2.97
2023-04-25T22:07:19.349Z,2.97
2023-04-25T22:09:54.578Z,2.60
2023-04-25T22:12:23.448Z,3.00
2023-04-25T22:14:50.977Z,2.77
2023-04-25T22:17:18.797Z,2.90
2023-04-25T22:19:46.576Z,2.83
2023-04-25T22:22:13.520Z,2.47
2023-04-25T22:24:40.978Z,2.73
2023-04-25T22:27:07.931Z,2.20
2023-04-25T22:29:35.202Z,2.50
2023-04-25T22:32:02.482Z,2.43
2023-04-25T22:34:29.689Z,2.43
2023-04-25T22:36:56.687Z,2.47
2023-04-25T22:39:23.650Z,2.30
2023-04-25T22:41:51.160Z,2.17
2023-04-25T22:44:18.115Z,2.67
2023-04-25T22:46:45.080Z,2.10
2023-04-25T22:49:12.093Z,2.63
2023-04-25T22:51:39.069Z,2.03
2023-04-25T22:54:06.050Z,2.27
2023-04-25T22:56:33.261Z,2.00
2023-04-25T22:59:00.220Z,1.77
2023-04-25T23:01:29.012Z,2.10
2023-04-25T23:03:56.571Z,2.00
2023-04-25T23:06:24.788Z,1.60
2023-04-25T23:08:52.008Z,2.13
2023-04-25T23:11:20.451Z,2.10
2023-04-25T23:13:47.541Z,2.27
2023-04-25T23:16:14.537Z,1.90
2023-04-25T23:18:41.487Z,2.20
2023-04-25T23:21:09.255Z,2.20
2023-04-25T23:23:36.845Z,1.87
2023-04-25T23:26:12.992Z,1.77
2023-04-25T23:28:42.007Z,1.87
2023-04-25T23:31:10.494Z,2.10
2023-04-25T23:33:37.832Z,2.23
2023-04-25T23:36:05.314Z,2.80
2023-04-25T23:38:32.668Z,2.07
2023-04-25T23:40:59.546Z,2.00
2023-04-25T23:43:26.477Z,2.20
2023-04-25T23:45:54.319Z,2.20
2023-04-25T23:48:21.400Z,1.80
2023-04-25T23:50:48.336Z,2.13
2023-04-25T23:53:15.698Z,2.37
2023-04-25T23:55:42.921Z,1.73
2023-04-25T23:58:10.044Z,1.80
